Etusivu
METAR-TAF:

METAR-TAF

Lentoasemat :

Växjö, Ruotsi

Leveyspiiri: 56-51N, Pituuspiiri: 014-50E, korkeus merenpinnasta: 199 m

Tämänhetkinen sää

Tämä raportti tehtiin 38 minuuttia sitten, kello 14.50 UTC
Tuuli 4 kn pohjoisesta/koillisesta, vaihdellen pohjoisen/luoteen ja idän/koillisen välillä
Lämpötila 24°C
Kosteus 47%
Ilmanpaine 1025 hPa
Näkyvyys 10 km tai enemmän

METAR: ESMX 111450Z AUTO 03004KT 340V070 9999 NCD 24/12 Q1025

Aika: 17:28 (15:28 UTC)

Sääennuste

Tämä raportti tehtiin 3 tuntia ja 58 minuuttia sitten, kello 11.30 UTC
Ennuste voimassa 11. päivästä klo 12 UTC - 11. päivään klo 15 UTC
Tuuli 7 kn idästä/koillisesta
Näkyvyys 10 km tai enemmän
ei pilviä alle 1500 m:ssä eikä cumulonimbus-pilviä

TAF: ESMX 111130Z 1112/1115 07007KT CAVOK

Säähavainnot ja -ennusteet yli 4000 lentoasemalta (METAR- ja TAF-raportit).

Käytössä olevat sääasemat on merkitty karttaan keltaisilla ja punaisilla pisteillä.

Aseta hiiri pisteen päälle nähdäksesi sääaseman nimen.

Klikkaa sitten nähdäksesi säähavainnot ja -ennusteet.

Kartan vaihtaminen: klikkaa mustalla rastilla varustettuja vihreitä pisteitä, niin voit zoomata sisään; viivalla varustettua vihreää pistettä, niin voit zoomata ulos tai vihreitä nuolia, niin pääset viereisille kartoille.


METAR-TAF: